Time,TemperatureF,DewpointF,PressureIn,WindDirection,WindDirectionDegrees,WindSpeedMPH,WindSpeedGustMPH,Humidity,HourlyPrecipIn,Conditions,Clouds,dailyrainin,SoftwareType,DateUTC
2013-02-14 00:11:00,31.8,31.6,29.72,WSW,247,2.2,-999.0,99,-99.99,,,0.00,Acu-Link.com,2013-02-14 06:11:00,
2013-02-14 00:26:00,32.0,31.8,29.72,SSE,157,1.1,-999.0,99,-99.99,,,0.00,Acu-Link.com,2013-02-14 06:26:00,
2013-02-14 00:41:00,32.0,31.8,29.72,SW,225,5.3,-999.0,99,-99.99,,,0.00,Acu-Link.com,2013-02-14 06:41:00,
2013-02-14 00:56:00,32.0,31.8,29.72,SW,225,5.3,-999.0,99,-99.99,,,0.00,Acu-Link.com,2013-02-14 06:56:00,
2013-02-14 01:11:00,32.0,31.8,29.72,WSW,247,3.7,-999.0,99,-99.99,,,0.00,Acu-Link.com,2013-02-14 07:11:00,
2013-02-14 01:26:00,32.0,31.8,29.72,SW,225,5.3,-999.0,99,-99.99,,,0.00,Acu-Link.com,2013-02-14 07:26:00,
2013-02-14 01:41:00,32.2,32.0,29.71,West,270,6.3,-999.0,99,-99.99,,,0.00,Acu-Link.com,2013-02-14 07:41:00,
2013-02-14 01:56:00,32.5,32.3,29.71,SW,225,5.8,-999.0,99,-99.99,,,0.00,Acu-Link.com,2013-02-14 07:56:00,
2013-02-14 02:11:00,33.1,32.8,29.71,SSW,202,3.7,-999.0,99,-99.99,,,0.00,Acu-Link.com,2013-02-14 08:11:00,
2013-02-14 02:27:00,33.6,33.3,29.71,SSW,202,1.7,-999.0,99,-99.99,,,0.00,Acu-Link.com,2013-02-14 08:27:00,
2013-02-14 02:42:00,33.6,33.3,29.71,SSE,157,0.0,-999.0,99,-99.99,,,0.00,Acu-Link.com,2013-02-14 08:42:00,
2013-02-14 02:57:00,33.8,33.5,29.70,WSW,247,2.7,-999.0,99,-99.99,,,0.00,Acu-Link.com,2013-02-14 08:57:00,
2013-02-14 03:15:00,33.8,33.5,29.70,WSW,247,0.0,-999.0,99,-99.99,,,0.00,Acu-Link.com,2013-02-14 09:15:00,
2013-02-14 03:30:00,35.1,34.8,29.69,WSW,247,4.2,-999.0,99,-99.99,,,0.00,Acu-Link.com,2013-02-14 09:30:00,
2013-02-14 03:46:00,35.1,34.8,29.69,WSW,247,6.3,-999.0,99,-99.99,,,0.00,Acu-Link.com,2013-02-14 09:46:00,
2013-02-14 04:01:00,34.9,34.6,29.69,WSW,247,4.2,-999.0,99,-99.99,,,0.00,Acu-Link.com,2013-02-14 10:01:00,
2013-02-14 04:16:00,34.7,34.4,29.68,SW,225,4.7,-999.0,99,-99.99,,,0.00,Acu-Link.com,2013-02-14 10:16:00,
2013-02-14 04:31:00,34.5,34.2,29.68,SW,225,3.2,-999.0,99,-99.99,,,0.00,Acu-Link.com,2013-02-14 10:31:00,
2013-02-14 04:46:00,34.7,34.4,29.68,SSE,157,3.2,-999.0,99,-99.99,,,0.00,Acu-Link.com,2013-02-14 10:46:00,
2013-02-14 05:01:00,34.5,34.2,29.68,WSW,247,7.8,-999.0,99,-99.99,,,0.00,Acu-Link.com,2013-02-14 11:01:00,
2013-02-14 05:17:00,34.9,34.6,29.68,SSW,202,6.3,-999.0,99,-99.99,,,0.00,Acu-Link.com,2013-02-14 11:17:00,
2013-02-14 05:32:00,34.7,34.4,29.67,WSW,247,7.8,-999.0,99,-99.99,,,0.00,Acu-Link.com,2013-02-14 11:32:00,
2013-02-14 05:47:00,34.7,34.4,29.68,SW,225,7.8,-999.0,99,-99.99,,,0.00,Acu-Link.com,2013-02-14 11:47:00,
2013-02-14 06:02:00,35.1,34.8,29.68,SW,225,6.8,-999.0,99,-99.99,,,0.00,Acu-Link.com,2013-02-14 12:02:00,
2013-02-14 06:17:00,35.6,35.3,29.68,SW,225,6.8,-999.0,99,-99.99,,,0.00,Acu-Link.com,2013-02-14 12:17:00,
2013-02-14 06:32:00,35.4,35.1,29.68,SW,225,7.8,-999.0,99,-99.99,,,0.00,Acu-Link.com,2013-02-14 12:32:00,
2013-02-14 06:47:00,35.2,34.9,29.68,SSW,202,5.3,-999.0,99,-99.99,,,0.00,Acu-Link.com,2013-02-14 12:47:00,
2013-02-14 07:17:00,35.4,35.1,29.68,SW,225,7.3,-999.0,99,-99.99,,,0.00,Acu-Link.com,2013-02-14 13:17:00,
2013-02-14 07:33:00,35.2,34.9,29.67,SW,225,5.3,-999.0,99,-99.99,,,0.00,Acu-Link.com,2013-02-14 13:33:00,
2013-02-14 07:48:00,36.0,35.7,29.67,SW,225,6.8,-999.0,99,-99.99,,,0.00,Acu-Link.com,2013-02-14 13:48:00,
2013-02-14 08:03:00,36.3,36.0,29.68,SW,225,9.4,-999.0,99,-99.99,,,0.00,Acu-Link.com,2013-02-14 14:03:00,
2013-02-14 08:18:00,37.0,36.7,29.68,SW,225,7.3,-999.0,99,-99.99,,,0.00,Acu-Link.com,2013-02-14 14:18:00,
2013-02-14 08:33:00,38.1,37.8,29.68,West,270,6.3,-999.0,99,-99.99,,,0.00,Acu-Link.com,2013-02-14 14:33:00,
2013-02-14 08:48:00,38.8,38.5,29.69,SW,225,6.3,-999.0,99,-99.99,,,0.00,Acu-Link.com,2013-02-14 14:48:00,
2013-02-14 09:03:00,39.0,38.7,29.70,West,270,4.7,-999.0,99,-99.99,,,0.00,Acu-Link.com,2013-02-14 15:03:00,
2013-02-14 09:18:00,39.6,39.3,29.70,SSW,202,8.9,-999.0,99,-99.99,,,0.00,Acu-Link.com,2013-02-14 15:18:00,
2013-02-14 09:33:00,41.2,40.9,29.70,West,270,8.3,-999.0,99,-99.99,,,0.00,Acu-Link.com,2013-02-14 15:33:00,
2013-02-14 09:49:00,43.5,43.2,29.70,West,270,9.9,-999.0,99,-99.99,,,0.00,Acu-Link.com,2013-02-14 15:49:00,
2013-02-14 10:04:00,43.7,43.4,29.70,West,270,7.8,-999.0,99,-99.99,,,0.00,Acu-Link.com,2013-02-14 16:04:00,
2013-02-14 10:19:00,45.9,45.6,29.70,West,270,11.4,-999.0,99,-99.99,,,0.00,Acu-Link.com,2013-02-14 16:19:00,
2013-02-14 10:34:00,45.9,45.6,29.70,West,270,10.4,-999.0,99,-99.99,,,0.00,Acu-Link.com,2013-02-14 16:34:00,
2013-02-14 10:49:00,46.4,46.1,29.71,West,270,9.9,-999.0,99,-99.99,,,0.00,Acu-Link.com,2013-02-14 16:49:00,
2013-02-14 11:04:00,46.4,46.1,29.72,WNW,292,17.6,-999.0,99,-99.99,,,0.00,Acu-Link.com,2013-02-14 17:04:00,
2013-02-14 11:20:00,46.0,45.7,29.72,West,270,17.6,-999.0,99,-99.99,,,0.00,Acu-Link.com,2013-02-14 17:20:00,
2013-02-14 11:35:00,45.3,45.0,29.73,WNW,292,15.5,-999.0,99,-99.99,,,0.00,Acu-Link.com,2013-02-14 17:35:00,
2013-02-14 11:50:00,43.2,42.9,29.73,West,270,18.6,-999.0,99,-99.99,,,0.00,Acu-Link.com,2013-02-14 17:50:00,
2013-02-14 12:05:00,43.0,42.7,29.74,WNW,292,17.6,-999.0,99,-99.99,,,0.00,Acu-Link.com,2013-02-14 18:05:00,
2013-02-14 12:20:00,42.8,42.5,29.74,NW,315,20.7,-999.0,99,-99.99,,,0.00,Acu-Link.com,2013-02-14 18:20:00,
2013-02-14 12:35:00,43.9,43.6,29.74,WNW,292,17.1,-999.0,99,-99.99,,,0.00,Acu-Link.com,2013-02-14 18:35:00,
2013-02-14 12:50:00,43.5,43.2,29.74,NW,315,15.5,-999.0,99,-99.99,,,0.00,Acu-Link.com,2013-02-14 18:50:00,
2013-02-14 13:05:00,42.8,42.5,29.75,West,270,18.6,-999.0,99,-99.99,,,0.00,Acu-Link.com,2013-02-14 19:05:00,
2013-02-14 13:20:00,45.1,44.8,29.75,West,270,18.1,-999.0,99,-99.99,,,0.00,Acu-Link.com,2013-02-14 19:20:00,
2013-02-14 13:36:00,44.4,44.1,29.76,West,270,15.0,-999.0,99,-99.99,,,0.00,Acu-Link.com,2013-02-14 19:36:00,
2013-02-14 13:51:00,42.3,42.0,29.76,West,270,11.9,-999.0,99,-99.99,,,0.00,Acu-Link.com,2013-02-14 19:51:00,
2013-02-14 14:06:00,44.2,43.9,29.76,West,270,7.3,-999.0,99,-99.99,,,0.00,Acu-Link.com,2013-02-14 20:06:00,
2013-02-14 14:21:00,44.1,43.8,29.77,WNW,292,16.1,-999.0,99,-99.99,,,0.00,Acu-Link.com,2013-02-14 20:21:00,
2013-02-14 14:36:00,42.6,42.3,29.78,WNW,292,14.0,-999.0,99,-99.99,,,0.00,Acu-Link.com,2013-02-14 20:36:00,
2013-02-14 14:51:00,42.3,42.0,29.79,West,270,12.5,-999.0,99,-99.99,,,0.00,Acu-Link.com,2013-02-14 20:51:00,
2013-02-14 15:06:00,41.5,41.2,29.79,WNW,292,13.5,-999.0,99,-99.99,,,0.00,Acu-Link.com,2013-02-14 21:06:00,
2013-02-14 15:21:00,41.2,40.9,29.80,WNW,292,13.5,-999.0,99,-99.99,,,0.00,Acu-Link.com,2013-02-14 21:21:00,
2013-02-14 15:37:00,41.0,40.7,29.80,WNW,292,11.4,-999.0,99,-99.99,,,0.00,Acu-Link.com,2013-02-14 21:37:00,
2013-02-14 15:52:00,40.6,40.3,29.81,West,270,11.4,-999.0,99,-99.99,,,0.00,Acu-Link.com,2013-02-14 21:52:00,
2013-02-14 16:07:00,40.1,39.8,29.83,West,270,15.5,-999.0,99,-99.99,,,0.00,Acu-Link.com,2013-02-14 22:07:00,
2013-02-14 16:22:00,39.7,39.4,29.83,WNW,292,9.9,-999.0,99,-99.99,,,0.00,Acu-Link.com,2013-02-14 22:22:00,
2013-02-14 16:37:00,39.6,39.3,29.84,WNW,292,12.5,-999.0,99,-99.99,,,0.00,Acu-Link.com,2013-02-14 22:37:00,
2013-02-14 16:52:00,39.4,39.1,29.85,West,270,10.9,-999.0,99,-99.99,,,0.00,Acu-Link.com,2013-02-14 22:52:00,
2013-02-14 17:07:00,39.2,38.9,29.86,WNW,292,10.9,-999.0,99,-99.99,,,0.00,Acu-Link.com,2013-02-14 23:07:00,
2013-02-14 17:22:00,39.2,38.9,29.87,NW,315,13.0,-999.0,99,-99.99,,,0.00,Acu-Link.com,2013-02-14 23:22:00,
2013-02-14 17:37:00,39.2,38.9,29.87,West,270,11.4,-999.0,99,-99.99,,,0.00,Acu-Link.com,2013-02-14 23:37:00,
2013-02-14 17:53:00,38.8,38.5,29.87,WNW,292,10.9,-999.0,99,-99.99,,,0.00,Acu-Link.com,2013-02-14 23:53:00,
2013-02-14 18:08:00,38.7,38.4,29.88,WNW,292,8.3,-999.0,99,-99.99,,,0.00,Acu-Link.com,2013-02-15 00:08:00,
2013-02-14 18:23:00,38.3,38.0,29.90,WNW,292,10.9,-999.0,99,-99.99,,,0.00,Acu-Link.com,2013-02-15 00:23:00,
2013-02-14 18:38:00,37.9,37.6,29.90,WNW,292,11.9,-999.0,99,-99.99,,,0.00,Acu-Link.com,2013-02-15 00:38:00,
2013-02-14 18:53:00,37.6,37.3,29.90,WNW,292,8.9,-999.0,99,-99.99,,,0.00,Acu-Link.com,2013-02-15 00:53:00,
2013-02-14 19:08:00,37.2,36.9,29.91,WNW,292,9.9,-999.0,99,-99.99,,,0.00,Acu-Link.com,2013-02-15 01:08:00,
2013-02-14 19:23:00,35.8,35.5,29.91,West,270,9.4,-999.0,99,-99.99,,,0.00,Acu-Link.com,2013-02-15 01:23:00,
2013-02-14 19:38:00,35.1,34.8,29.91,WNW,292,5.3,-999.0,99,-99.99,,,0.00,Acu-Link.com,2013-02-15 01:38:00,
2013-02-14 19:54:00,34.2,33.9,29.90,West,270,4.7,-999.0,99,-99.99,,,0.00,Acu-Link.com,2013-02-15 01:54:00,
2013-02-14 20:09:00,34.0,33.7,29.91,West,270,5.3,-999.0,99,-99.99,,,0.00,Acu-Link.com,2013-02-15 02:09:00,
2013-02-14 20:24:00,33.8,33.5,29.90,WNW,292,3.7,-999.0,99,-99.99,,,0.00,Acu-Link.com,2013-02-15 02:24:00,
2013-02-14 20:39:00,33.6,33.3,29.90,West,270,3.2,-999.0,99,-99.99,,,0.00,Acu-Link.com,2013-02-15 02:39:00,
2013-02-14 20:54:00,33.3,33.0,29.91,West,270,0.0,-999.0,99,-99.99,,,0.00,Acu-Link.com,2013-02-15 02:54:00,
2013-02-14 21:09:00,33.1,32.8,29.91,West,270,0.0,-999.0,99,-99.99,,,0.00,Acu-Link.com,2013-02-15 03:09:00,
2013-02-14 21:24:00,33.4,33.1,29.91,WSW,247,0.0,-999.0,99,-99.99,,,0.00,Acu-Link.com,2013-02-15 03:24:00,
2013-02-14 21:39:00,33.4,33.1,29.91,SW,225,0.0,-999.0,99,-99.99,,,0.00,Acu-Link.com,2013-02-15 03:39:00,
2013-02-14 21:54:00,33.8,33.5,29.91,West,270,0.0,-999.0,99,-99.99,,,0.00,Acu-Link.com,2013-02-15 03:54:00,
2013-02-14 22:10:00,34.2,33.9,29.91,WSW,247,0.0,-999.0,99,-99.99,,,0.00,Acu-Link.com,2013-02-15 04:10:00,
2013-02-14 22:25:00,34.2,33.9,29.91,West,270,0.0,-999.0,99,-99.99,,,0.00,Acu-Link.com,2013-02-15 04:25:00,
2013-02-14 22:40:00,33.8,33.5,29.91,SW,225,0.0,-999.0,99,-99.99,,,0.00,Acu-Link.com,2013-02-15 04:40:00,
2013-02-14 22:55:00,33.3,33.0,29.91,West,270,0.0,-999.0,99,-99.99,,,0.00,Acu-Link.com,2013-02-15 04:55:00,
2013-02-14 23:10:00,33.1,32.8,29.91,WSW,247,1.7,-999.0,99,-99.99,,,0.00,Acu-Link.com,2013-02-15 05:10:00,
2013-02-14 23:25:00,32.9,32.7,29.92,West,270,4.2,-999.0,99,-99.99,,,0.00,Acu-Link.com,2013-02-15 05:25:00,
2013-02-14 23:40:00,32.9,32.7,29.91,West,270,1.1,-999.0,99,-99.99,,,0.00,Acu-Link.com,2013-02-15 05:40:00,
2013-02-14 23:55:00,32.9,32.7,29.92,West,270,2.2,-999.0,99,-99.99,,,0.00,Acu-Link.com,2013-02-15 05:55:00,